Date,TemperatureHighF,TemperatureAvgF,TemperatureLowF,DewpointHighF,DewpointAvgF,DewpointLowF,HumidityHigh,HumidityAvg,HumidityLow,PressureMaxIn,PressureMinIn,WindSpeedMaxMPH,WindSpeedAvgMPH,GustSpeedMaxMPH,PrecipitationSumIn
2013-10-1,90.1,78.9,74.0,78.2,74.0,72.0,97,86,66,29.93,29.83,4,0,0,0.00
2013-10-2,85.7,76.8,73.5,78.8,73.9,71.8,97,91,73,29.95,29.87,4,0,0,0.39
2013-10-3,91.7,80.2,72.4,77.9,74.3,71.2,98,84,59,29.93,29.84,2,0,0,0.00
2013-10-4,93.3,80.5,70.6,75.6,73.1,69.1,97,80,52,29.92,29.84,5,0,0,0.00
2013-10-5,97.1,81.6,67.8,78.5,72.6,60.9,97,77,48,29.94,29.82,10,0,12,0.00
2013-10-6,79.0,66.2,55.0,61.0,53.4,45.5,94,66,33,30.10,29.94,8,1,12,0.20
2013-10-7,83.9,66.4,52.0,54.8,49.6,45.0,86,59,28,30.12,30.01,5,0,0,0.00
2013-10-8,86.3,67.5,51.9,60.8,54.2,49.7,96,68,29,30.08,29.97,3,0,0,0.00
2013-10-9,87.1,71.0,57.3,65.9,61.2,55.6,96,74,44,30.06,29.96,2,0,0,0.00
2013-10-10,90.1,73.9,60.9,69.1,64.8,59.0,97,76,46,30.04,29.91,3,0,0,0.00
2013-10-11,87.2,77.1,67.9,76.7,71.5,65.7,94,84,66,29.94,29.85,7,0,0,0.02
2013-10-12,88.5,76.6,72.2,80.7,74.0,70.6,97,92,75,30.02,29.89,4,0,0,0.25
2013-10-13,74.9,73.2,71.7,74.0,72.2,70.6,98,97,95,30.12,30.00,4,0,0,0.40
2013-10-14,84.9,76.7,71.2,75.9,71.9,70.3,98,86,66,30.07,29.94,5,0,0,0.01
2013-10-15,88.7,77.9,70.4,75.7,71.7,69.2,97,83,61,29.96,29.85,4,0,0,0.00
2013-10-16,72.9,66.5,61.9,70.1,64.1,59.5,96,92,86,30.01,29.87,4,0,0,0.05
2013-10-17,80.2,66.9,58.7,61.9,58.6,55.5,95,77,49,30.06,29.94,5,0,0,0.01
2013-10-18,74.4,64.8,58.0,66.5,60.9,55.6,95,87,73,29.98,29.86,6,0,0,0.18
2013-10-19,71.4,62.5,51.4,62.4,54.4,44.6,97,77,42,30.11,29.93,10,1,0,0.61
2013-10-20,78.9,62.3,45.8,62.2,53.5,43.9,96,75,42,30.08,29.92,3,0,0,0.00
2013-10-21,80.2,69.1,61.6,69.4,64.3,59.1,97,85,65,29.97,29.88,2,0,0,0.00
2013-10-22,78.6,66.4,55.0,64.5,58.9,50.7,94,79,44,30.08,29.94,5,1,0,0.00
2013-10-23,85.3,64.4,49.1,58.1,53.0,47.4,97,72,33,30.15,30.06,2,0,0,0.00
2013-10-24,86.3,67.2,52.3,63.0,56.2,50.4,97,72,35,30.21,30.10,2,0,0,0.00
2013-10-25,80.2,65.6,55.1,63.0,58.2,53.4,96,79,53,30.32,30.20,4,0,0,0.00
2013-10-26,83.2,68.8,56.8,67.8,61.0,53.9,91,78,54,30.23,30.07,5,0,0,0.00
2013-10-27,72.7,65.8,60.7,68.7,63.9,59.2,97,93,82,30.10,29.99,8,0,18,0.22
2013-10-28,84.1,71.6,61.6,75.1,67.2,60.7,98,87,69,30.09,30.00,5,0,0,0.00
2013-10-29,85.0,75.0,67.7,74.2,69.5,66.0,97,84,64,30.09,30.00,5,0,0,0.00
2013-10-30,82.6,76.7,72.3,77.4,73.9,70.2,95,91,82,30.04,29.83,5,1,0,0.27
2013-10-31,76.7,69.5,56.1,75.4,67.0,54.1,98,92,63,29.88,29.75,6,1,0,2.04